sensor_id;sensor_type;location;lat;lon;timestamp;pressure;altitude;pressure_sealevel;temperature;humidity
44138;BME280;29800;55.942;37.314;2023-04-03T00:00:31;99178.97;;;7.71;nan
44138;BME280;29800;55.942;37.314;2023-04-03T00:02:58;99178.13;;;7.70;nan
44138;BME280;29800;55.942;37.314;2023-04-03T00:05:25;99172.94;;;7.69;nan
44138;BME280;29800;55.942;37.314;2023-04-03T00:07:53;99177.31;;;7.70;nan
44138;BME280;29800;55.942;37.314;2023-04-03T00:10:19;99185.47;;;7.70;nan
44138;BME280;29800;55.942;37.314;2023-04-03T00:12:46;99176.25;;;7.71;nan
44138;BME280;29800;55.942;37.314;2023-04-03T00:15:12;99187.16;;;7.71;nan
44138;BME280;29800;55.942;37.314;2023-04-03T00:17:39;99180.84;;;7.70;nan
44138;BME280;29800;55.942;37.314;2023-04-03T00:20:06;99185.47;;;7.70;nan
44138;BME280;29800;55.942;37.314;2023-04-03T00:22:32;99192.00;;;7.69;nan
44138;BME280;29800;55.942;37.314;2023-04-03T00:24:59;99188.44;;;7.68;nan
44138;BME280;29800;55.942;37.314;2023-04-03T00:27:25;99182.19;;;7.68;nan
44138;BME280;29800;55.942;37.314;2023-04-03T00:29:51;99185.97;;;7.67;nan
44138;BME280;29800;55.942;37.314;2023-04-03T00:32:18;99188.69;;;7.67;nan
44138;BME280;29800;55.942;37.314;2023-04-03T00:34:44;99186.22;;;7.65;nan
44138;BME280;29800;55.942;37.314;2023-04-03T00:37:11;99191.09;;;7.63;nan
44138;BME280;29800;55.942;37.314;2023-04-03T00:39:37;99190.28;;;7.63;nan
44138;BME280;29800;55.942;37.314;2023-04-03T00:42:03;99184.81;;;7.63;nan
44138;BME280;29800;55.942;37.314;2023-04-03T00:46:59;99183.16;;;7.62;nan
44138;BME280;29800;55.942;37.314;2023-04-03T00:49:26;99187.31;;;7.64;nan
44138;BME280;29800;55.942;37.314;2023-04-03T00:51:54;99185.63;;;7.63;nan
44138;BME280;29800;55.942;37.314;2023-04-03T00:54:21;99188.13;;;7.65;nan
44138;BME280;29800;55.942;37.314;2023-04-03T00:56:49;99181.00;;;7.64;nan
44138;BME280;29800;55.942;37.314;2023-04-03T00:59:21;99181.00;;;7.64;nan
44138;BME280;29800;55.942;37.314;2023-04-03T01:01:52;99186.94;;;7.61;nan
44138;BME280;29800;55.942;37.314;2023-04-03T01:04:29;99191.91;;;7.64;nan
44138;BME280;29800;55.942;37.314;2023-04-03T01:06:59;99194.06;;;7.62;nan
44138;BME280;29800;55.942;37.314;2023-04-03T01:09:28;99188.59;;;7.62;nan
44138;BME280;29800;55.942;37.314;2023-04-03T01:12:20;99190.59;;;7.66;nan
44138;BME280;29800;55.942;37.314;2023-04-03T01:14:50;99194.63;;;7.64;nan
44138;BME280;29800;55.942;37.314;2023-04-03T01:17:33;99193.09;;;7.68;nan
44138;BME280;29800;55.942;37.314;2023-04-03T01:25:40;99191.41;;;7.67;nan
44138;BME280;29800;55.942;37.314;2023-04-03T01:28:09;99193.09;;;7.68;nan
44138;BME280;29800;55.942;37.314;2023-04-03T01:31:13;99195.41;;;7.76;nan
44138;BME280;29800;55.942;37.314;2023-04-03T01:33:43;99199.19;;;7.75;nan
44138;BME280;29800;55.942;37.314;2023-04-03T01:36:16;99201.91;;;7.75;nan
44138;BME280;29800;55.942;37.314;2023-04-03T01:38:44;99193.75;;;7.75;nan
44138;BME280;29800;55.942;37.314;2023-04-03T01:41:12;99187.81;;;7.78;nan
44138;BME280;29800;55.942;37.314;2023-04-03T01:43:40;99191.59;;;7.77;nan
44138;BME280;29800;55.942;37.314;2023-04-03T01:46:06;99193.25;;;7.78;nan
44138;BME280;29800;55.942;37.314;2023-04-03T01:48:33;99194.06;;;7.79;nan
44138;BME280;29800;55.942;37.314;2023-04-03T01:51:00;99200.88;;;7.76;nan
44138;BME280;29800;55.942;37.314;2023-04-03T01:53:27;99191.59;;;7.77;nan
44138;BME280;29800;55.942;37.314;2023-04-03T01:55:53;99197.03;;;7.77;nan
44138;BME280;29800;55.942;37.314;2023-04-03T01:58:20;99198.13;;;7.76;nan
44138;BME280;29800;55.942;37.314;2023-04-03T02:00:47;99200.88;;;7.76;nan
44138;BME280;29800;55.942;37.314;2023-04-03T02:03:14;99196.22;;;7.77;nan
44138;BME280;29800;55.942;37.314;2023-04-03T02:05:41;99198.72;;;7.78;nan
44138;BME280;29800;55.942;37.314;2023-04-03T02:08:07;99194.94;;;7.79;nan
44138;BME280;29800;55.942;37.314;2023-04-03T02:10:34;99203.09;;;7.79;nan
44138;BME280;29800;55.942;37.314;2023-04-03T02:13:01;99195.75;;;7.80;nan
44138;BME280;29800;55.942;37.314;2023-04-03T02:15:27;99197.16;;;7.82;nan
44138;BME280;29800;55.942;37.314;2023-04-03T02:17:54;99195.50;;;7.81;nan
44138;BME280;29800;55.942;37.314;2023-04-03T02:20:21;99199.88;;;7.82;nan
44138;BME280;29800;55.942;37.314;2023-04-03T02:22:47;99205.81;;;7.79;nan
44138;BME280;29800;55.942;37.314;2023-04-03T02:25:14;99205.81;;;7.79;nan
44138;BME280;29800;55.942;37.314;2023-04-03T02:27:41;99209.59;;;7.78;nan
44138;BME280;29800;55.942;37.314;2023-04-03T02:30:07;99214.25;;;7.78;nan
44138;BME280;29800;55.942;37.314;2023-04-03T02:32:35;99211.28;;;7.79;nan
44138;BME280;29800;55.942;37.314;2023-04-03T02:35:02;99213.41;;;7.77;nan
44138;BME280;29800;55.942;37.314;2023-04-03T02:37:29;99206.06;;;7.78;nan
44138;BME280;29800;55.942;37.314;2023-04-03T02:39:56;99206.63;;;7.80;nan
44138;BME280;29800;55.942;37.314;2023-04-03T02:42:23;99210.19;;;7.80;nan
44138;BME280;29800;55.942;37.314;2023-04-03T02:44:51;99194.94;;;7.79;nan
44138;BME280;29800;55.942;37.314;2023-04-03T02:47:17;99198.72;;;7.78;nan
44138;BME280;29800;55.942;37.314;2023-04-03T02:49:43;99194.00;;;7.73;nan
44138;BME280;29800;55.942;37.314;2023-04-03T02:52:11;99197.31;;;7.76;nan
44138;BME280;29800;55.942;37.314;2023-04-03T02:54:37;99192.44;;;7.78;nan
44138;BME280;29800;55.942;37.314;2023-04-03T02:57:07;99201.44;;;7.78;nan
44138;BME280;29800;55.942;37.314;2023-04-03T02:59:36;99200.03;;;7.76;nan
44138;BME280;29800;55.942;37.314;2023-04-03T03:02:08;99205.50;;;7.76;nan
44138;BME280;29800;55.942;37.314;2023-04-03T03:04:34;99203.00;;;7.74;nan
44138;BME280;29800;55.942;37.314;2023-04-03T03:07:01;99206.78;;;7.73;nan
44138;BME280;29800;55.942;37.314;2023-04-03T03:09:28;99200.78;;;7.71;nan
44138;BME280;29800;55.942;37.314;2023-04-03T03:11:56;99206.69;;;7.68;nan
44138;BME280;29800;55.942;37.314;2023-04-03T03:14:23;99205.53;;;7.64;nan
44138;BME280;29800;55.942;37.314;2023-04-03T03:16:49;99203.78;;;7.58;nan
44138;BME280;29800;55.942;37.314;2023-04-03T03:19:16;99205.44;;;7.59;nan
44138;BME280;29800;55.942;37.314;2023-04-03T03:21:42;99209.00;;;7.59;nan
44138;BME280;29800;55.942;37.314;2023-04-03T03:24:08;99203.88;;;7.63;nan
44138;BME280;29800;55.942;37.314;2023-04-03T03:26:35;99202.31;;;7.67;nan
44138;BME280;29800;55.942;37.314;2023-04-03T03:29:03;99206.56;;;7.75;nan
44138;BME280;29800;55.942;37.314;2023-04-03T03:31:29;99197.41;;;7.81;nan
44138;BME280;29800;55.942;37.314;2023-04-03T03:33:57;99204.34;;;7.88;nan
44138;BME280;29800;55.942;37.314;2023-04-03T03:36:23;99202.06;;;7.97;nan
44138;BME280;29800;55.942;37.314;2023-04-03T03:38:49;99210.88;;;8.04;nan
44138;BME280;29800;55.942;37.314;2023-04-03T03:41:15;99205.03;;;8.13;nan
44138;BME280;29800;55.942;37.314;2023-04-03T03:43:43;99214.63;;;8.15;nan
44138;BME280;29800;55.942;37.314;2023-04-03T03:46:12;99211.41;;;8.18;nan
44138;BME280;29800;55.942;37.314;2023-04-03T03:48:38;99215.94;;;8.29;nan
44138;BME280;29800;55.942;37.314;2023-04-03T03:51:05;99215.50;;;8.38;nan
44138;BME280;29800;55.942;37.314;2023-04-03T03:53:35;99215.97;;;8.46;nan
44138;BME280;29800;55.942;37.314;2023-04-03T03:56:06;99219.66;;;8.57;nan
44138;BME280;29800;55.942;37.314;2023-04-03T03:58:34;99217.13;;;8.68;nan
44138;BME280;29800;55.942;37.314;2023-04-03T04:01:03;99224.88;;;8.76;nan
44138;BME280;29800;55.942;37.314;2023-04-03T04:03:33;99229.31;;;8.82;nan
44138;BME280;29800;55.942;37.314;2023-04-03T04:06:00;99229.16;;;8.89;nan
44138;BME280;29800;55.942;37.314;2023-04-03T04:08:26;99226.75;;;8.92;nan
44138;BME280;29800;55.942;37.314;2023-04-03T04:10:53;99219.13;;;8.94;nan
44138;BME280;29800;55.942;37.314;2023-04-03T04:13:19;99221.66;;;9.01;nan
44138;BME280;29800;55.942;37.314;2023-04-03T04:15:46;99219.00;;;9.06;nan
44138;BME280;29800;55.942;37.314;2023-04-03T04:18:14;99219.81;;;9.07;nan
44138;BME280;29800;55.942;37.314;2023-04-03T04:20:45;99217.19;;;9.12;nan
44138;BME280;29800;55.942;37.314;2023-04-03T04:23:11;99225.13;;;9.13;nan
44138;BME280;29800;55.942;37.314;2023-04-03T04:25:38;99224.34;;;9.18;nan
44138;BME280;29800;55.942;37.314;2023-04-03T04:28:05;99221.09;;;9.21;nan
44138;BME280;29800;55.942;37.314;2023-04-03T04:30:31;99220.09;;;9.27;nan
44138;BME280;29800;55.942;37.314;2023-04-03T04:32:58;99220.97;;;9.33;nan
44138;BME280;29800;55.942;37.314;2023-04-03T04:35:26;99231.97;;;9.38;nan
44138;BME280;29800;55.942;37.314;2023-04-03T04:37:52;99231.78;;;9.45;nan
44138;BME280;29800;55.942;37.314;2023-04-03T04:40:20;99231.84;;;9.50;nan
44138;BME280;29800;55.942;37.314;2023-04-03T04:42:47;99232.09;;;9.48;nan
44138;BME280;29800;55.942;37.314;2023-04-03T04:45:13;99236.47;;;9.49;nan
44138;BME280;29800;55.942;37.314;2023-04-03T04:47:42;99233.47;;;9.51;nan
44138;BME280;29800;55.942;37.314;2023-04-03T04:50:10;99231.91;;;9.55;nan
44138;BME280;29800;55.942;37.314;2023-04-03T04:52:38;99243.69;;;9.61;nan
44138;BME280;29800;55.942;37.314;2023-04-03T04:55:06;99237.09;;;9.56;nan
44138;BME280;29800;55.942;37.314;2023-04-03T04:57:33;99239.03;;;9.56;nan
44138;BME280;29800;55.942;37.314;2023-04-03T05:00:00;99243.44;;;9.62;nan
44138;BME280;29800;55.942;37.314;2023-04-03T05:02:26;99242.94;;;9.65;nan
44138;BME280;29800;55.942;37.314;2023-04-03T05:04:54;99245.41;;;9.67;nan
44138;BME280;29800;55.942;37.314;2023-04-03T05:07:25;99249.56;;;9.69;nan
44138;BME280;29800;55.942;37.314;2023-04-03T05:09:51;99246.56;;;9.71;nan
44138;BME280;29800;55.942;37.314;2023-04-03T05:12:18;99249.03;;;9.72;nan
44138;BME280;29800;55.942;37.314;2023-04-03T05:14:51;99241.66;;;9.73;nan
44138;BME280;29800;55.942;37.314;2023-04-03T05:17:18;99251.81;;;9.78;nan
44138;BME280;29800;55.942;37.314;2023-04-03T05:19:48;99245.31;;;9.84;nan
44138;BME280;29800;55.942;37.314;2023-04-03T05:22:16;99248.03;;;9.84;nan
44138;BME280;29800;55.942;37.314;2023-04-03T05:24:42;99243.16;;;9.86;nan
44138;BME280;29800;55.942;37.314;2023-04-03T05:27:08;99245.66;;;9.87;nan
44138;BME280;29800;55.942;37.314;2023-04-03T05:29:38;99246.75;;;9.91;nan
44138;BME280;29800;55.942;37.314;2023-04-03T05:32:05;99251.75;;;10.00;nan
44138;BME280;29800;55.942;37.314;2023-04-03T05:34:32;99254.53;;;10.05;nan
44138;BME280;29800;55.942;37.314;2023-04-03T05:36:59;99249.13;;;10.10;nan
44138;BME280;29800;55.942;37.314;2023-04-03T05:39:27;99254.41;;;10.17;nan
44138;BME280;29800;55.942;37.314;2023-04-03T05:41:54;99263.19;;;10.19;nan
44138;BME280;29800;55.942;37.314;2023-04-03T05:44:20;99257.44;;;10.20;nan
44138;BME280;29800;55.942;37.314;2023-04-03T05:46:48;99257.50;;;10.25;nan
44138;BME280;29800;55.942;37.314;2023-04-03T05:49:14;99247.41;;;10.31;nan
44138;BME280;29800;55.942;37.314;2023-04-03T05:51:41;99244.19;;;10.34;nan
44138;BME280;29800;55.942;37.314;2023-04-03T05:54:24;99244.84;;;10.46;nan
44138;BME280;29800;55.942;37.314;2023-04-03T05:56:55;99245.97;;;10.51;nan
44138;BME280;29800;55.942;37.314;2023-04-03T05:59:22;99253.13;;;10.57;nan
44138;BME280;29800;55.942;37.314;2023-04-03T06:01:51;99249.09;;;10.64;nan
44138;BME280;29800;55.942;37.314;2023-04-03T06:04:18;99257.66;;;10.78;nan
44138;BME280;29800;55.942;37.314;2023-04-03T06:06:54;99261.84;;;10.91;nan
44138;BME280;29800;55.942;37.314;2023-04-03T06:09:24;99267.13;;;11.03;nan
44138;BME280;29800;55.942;37.314;2023-04-03T06:11:50;99267.75;;;11.15;nan
44138;BME280;29800;55.942;37.314;2023-04-03T06:14:19;99261.22;;;11.21;nan
44138;BME280;29800;55.942;37.314;2023-04-03T06:16:45;99262.88;;;11.28;nan
44138;BME280;29800;55.942;37.314;2023-04-03T06:19:12;99265.38;;;11.34;nan
44138;BME280;29800;55.942;37.314;2023-04-03T06:21:42;99270.03;;;11.34;nan
44138;BME280;29800;55.942;37.314;2023-04-03T06:24:10;99272.72;;;11.24;nan
44138;BME280;29800;55.942;37.314;2023-04-03T06:26:38;99275.38;;;11.08;nan
44138;BME280;29800;55.942;37.314;2023-04-03T06:29:04;99274.78;;;11.01;nan
44138;BME280;29800;55.942;37.314;2023-04-03T06:31:30;99276.69;;;10.95;nan
44138;BME280;29800;55.942;37.314;2023-04-03T06:33:56;99275.28;;;10.93;nan
44138;BME280;29800;55.942;37.314;2023-04-03T06:36:23;99282.09;;;10.90;nan
44138;BME280;29800;55.942;37.314;2023-04-03T06:38:50;99281.28;;;10.90;nan
44138;BME280;29800;55.942;37.314;2023-04-03T06:41:16;99280.72;;;10.88;nan
44138;BME280;29800;55.942;37.314;2023-04-03T06:43:44;99286.75;;;10.90;nan
44138;BME280;29800;55.942;37.314;2023-04-03T06:46:18;99284.53;;;10.87;nan
44138;BME280;29800;55.942;37.314;2023-04-03T06:48:45;99280.94;;;10.76;nan
44138;BME280;29800;55.942;37.314;2023-04-03T06:51:28;99287.81;;;10.83;nan
44138;BME280;29800;55.942;37.314;2023-04-03T06:53:57;99289.94;;;10.76;nan
44138;BME280;29800;55.942;37.314;2023-04-03T06:56:24;99288.88;;;10.77;nan
44138;BME280;29800;55.942;37.314;2023-04-03T06:58:53;99293.25;;;10.78;nan
44138;BME280;29800;55.942;37.314;2023-04-03T07:01:25;99290.00;;;10.81;nan
44138;BME280;29800;55.942;37.314;2023-04-03T07:03:53;99291.91;;;10.81;nan
44138;BME280;29800;55.942;37.314;2023-04-03T07:06:20;99286.72;;;10.84;nan
44138;BME280;29800;55.942;37.314;2023-04-03T07:08:46;99287.84;;;10.89;nan
44138;BME280;29800;55.942;37.314;2023-04-03T07:11:15;99292.25;;;10.95;nan
44138;BME280;29800;55.942;37.314;2023-04-03T07:13:42;99295.56;;;10.97;nan
44138;BME280;29800;55.942;37.314;2023-04-03T07:16:08;99290.09;;;10.97;nan
44138;BME280;29800;55.942;37.314;2023-04-03T07:18:35;99295.03;;;11.00;nan
44138;BME280;29800;55.942;37.314;2023-04-03T07:21:01;99295.34;;;11.03;nan
44138;BME280;29800;55.942;37.314;2023-04-03T07:23:28;99290.16;;;11.07;nan
44138;BME280;29800;55.942;37.314;2023-04-03T07:25:55;99296.75;;;11.11;nan
44138;BME280;29800;55.942;37.314;2023-04-03T07:28:22;99294.31;;;11.15;nan
44138;BME280;29800;55.942;37.314;2023-04-03T07:31:02;99288.03;;;11.19;nan
44138;BME280;29800;55.942;37.314;2023-04-03T07:33:29;99291.13;;;11.28;nan
44138;BME280;29800;55.942;37.314;2023-04-03T07:35:56;99294.41;;;11.30;nan
44138;BME280;29800;55.942;37.314;2023-04-03T07:38:23;99299.63;;;11.32;nan
44138;BME280;29800;55.942;37.314;2023-04-03T07:40:50;99292.22;;;11.32;nan
44138;BME280;29800;55.942;37.314;2023-04-03T07:43:19;99297.44;;;11.34;nan
44138;BME280;29800;55.942;37.314;2023-04-03T07:45:47;99299.91;;;11.35;nan
44138;BME280;29800;55.942;37.314;2023-04-03T07:48:19;99294.16;;;11.37;nan
44138;BME280;29800;55.942;37.314;2023-04-03T07:50:46;99300.47;;;11.37;nan
44138;BME280;29800;55.942;37.314;2023-04-03T07:53:12;99300.75;;;11.41;nan
44138;BME280;29800;55.942;37.314;2023-04-03T07:55:40;99297.75;;;11.43;nan
44138;BME280;29800;55.942;37.314;2023-04-03T07:58:13;99302.44;;;11.47;nan
44138;BME280;29800;55.942;37.314;2023-04-03T08:00:40;99307.91;;;11.47;nan
44138;BME280;29800;55.942;37.314;2023-04-03T08:03:09;99311.78;;;11.51;nan
44138;BME280;29800;55.942;37.314;2023-04-03T08:05:45;99313.47;;;11.63;nan
44138;BME280;29800;55.942;37.314;2023-04-03T08:08:14;99311.28;;;11.59;nan
44138;BME280;29800;55.942;37.314;2023-04-03T08:10:41;99318.97;;;11.63;nan
44138;BME280;29800;55.942;37.314;2023-04-03T08:13:08;99305.84;;;11.75;nan
44138;BME280;29800;55.942;37.314;2023-04-03T08:15:35;99309.72;;;11.84;nan
44138;BME280;29800;55.942;37.314;2023-04-03T08:18:02;99307.84;;;11.95;nan
44138;BME280;29800;55.942;37.314;2023-04-03T08:20:29;99309.25;;;12.03;nan
44138;BME280;29800;55.942;37.314;2023-04-03T08:22:56;99315.56;;;12.08;nan
44138;BME280;29800;55.942;37.314;2023-04-03T08:25:23;99303.25;;;12.11;nan
44138;BME280;29800;55.942;37.314;2023-04-03T08:27:50;99303.53;;;12.20;nan
44138;BME280;29800;55.942;37.314;2023-04-03T08:30:16;99309.31;;;12.28;nan
44138;BME280;29800;55.942;37.314;2023-04-03T08:32:43;99311.53;;;12.31;nan
44138;BME280;29800;55.942;37.314;2023-04-03T08:35:10;99301.09;;;12.44;nan
44138;BME280;29800;55.942;37.314;2023-04-03T08:37:37;99311.81;;;12.61;nan
44138;BME280;29800;55.942;37.314;2023-04-03T08:40:06;99313.47;;;12.82;nan
44138;BME280;29800;55.942;37.314;2023-04-03T08:46:01;99307.66;;;13.35;nan
44138;BME280;29800;55.942;37.314;2023-04-03T08:48:41;99308.47;;;13.36;nan
44138;BME280;29800;55.942;37.314;2023-04-03T08:51:17;99309.84;;;13.38;nan
44138;BME280;29800;55.942;37.314;2023-04-03T08:53:58;99312.06;;;13.36;nan
44138;BME280;29800;55.942;37.314;2023-04-03T08:56:30;99318.09;;;13.28;nan
44138;BME280;29800;55.942;37.314;2023-04-03T08:59:00;99316.44;;;13.27;nan
44138;BME280;29800;55.942;37.314;2023-04-03T09:01:35;99312.06;;;13.36;nan
44138;BME280;29800;55.942;37.314;2023-04-03T09:04:03;99320.00;;;13.38;nan
44138;BME280;29800;55.942;37.314;2023-04-03T09:06:36;99319.16;;;13.48;nan
44138;BME280;29800;55.942;37.314;2023-04-03T09:12:00;99326.19;;;13.79;nan
44138;BME280;29800;55.942;37.314;2023-04-03T09:17:14;99333.25;;;14.01;nan
44138;BME280;29800;55.942;37.314;2023-04-03T09:19:58;99331.59;;;14.00;nan
44138;BME280;29800;55.942;37.314;2023-04-03T09:22:32;99340.13;;;13.98;nan
44138;BME280;29800;55.942;37.314;2023-04-03T09:25:31;99340.91;;;14.09;nan
44138;BME280;29800;55.942;37.314;2023-04-03T09:28:03;99341.50;;;14.01;nan
44138;BME280;29800;55.942;37.314;2023-04-03T09:30:30;99342.59;;;14.00;nan
44138;BME280;29800;55.942;37.314;2023-04-03T09:32:57;99342.03;;;14.03;nan
44138;BME280;29800;55.942;37.314;2023-04-03T09:37:51;99345.03;;;14.12;nan
44138;BME280;29800;55.942;37.314;2023-04-03T09:42:52;99345.78;;;14.23;nan
44138;BME280;29800;55.942;37.314;2023-04-03T09:45:32;99345.72;;;14.33;nan
44138;BME280;29800;55.942;37.314;2023-04-03T09:51:00;99346.22;;;14.45;nan
44138;BME280;29800;55.942;37.314;2023-04-03T10:01:30;99342.47;;;14.26;nan
44138;BME280;29800;55.942;37.314;2023-04-03T10:04:09;99343.00;;;14.28;nan
44138;BME280;29800;55.942;37.314;2023-04-03T10:06:40;99346.88;;;14.27;nan
44138;BME280;29800;55.942;37.314;2023-04-03T10:09:27;99343.78;;;14.39;nan
44138;BME280;29800;55.942;37.314;2023-04-03T10:12:06;99341.56;;;14.41;nan
44138;BME280;29800;55.942;37.314;2023-04-03T10:14:36;99346.69;;;14.52;nan
44138;BME280;29800;55.942;37.314;2023-04-03T10:17:20;99345.06;;;14.51;nan
44138;BME280;29800;55.942;37.314;2023-04-03T10:19:56;99345.59;;;14.53;nan
44138;BME280;29800;55.942;37.314;2023-04-03T10:31:03;99356.25;;;14.70;nan
44138;BME280;29800;55.942;37.314;2023-04-03T10:36:56;99356.63;;;14.53;nan
44138;BME280;29800;55.942;37.314;2023-04-03T10:42:33;99352.78;;;14.55;nan
44138;BME280;29800;55.942;37.314;2023-04-03T10:48:51;99356.56;;;14.64;nan
44138;BME280;29800;55.942;37.314;2023-04-03T10:51:27;99354.66;;;14.64;nan
44138;BME280;29800;55.942;37.314;2023-04-03T10:56:47;99358.72;;;14.72;nan
44138;BME280;29800;55.942;37.314;2023-04-03T10:59:33;99353.44;;;14.76;nan
44138;BME280;29800;55.942;37.314;2023-04-03T11:02:07;99356.44;;;14.84;nan
44138;BME280;29800;55.942;37.314;2023-04-03T11:04:39;99358.38;;;14.79;nan
44138;BME280;29800;55.942;37.314;2023-04-03T11:07:29;99358.66;;;14.82;nan
44138;BME280;29800;55.942;37.314;2023-04-03T11:13:11;99355.53;;;14.60;nan
44138;BME280;29800;55.942;37.314;2023-04-03T11:15:39;99354.41;;;14.56;nan
44138;BME280;29800;55.942;37.314;2023-04-03T11:18:16;99350.81;;;14.60;nan
44138;BME280;29800;55.942;37.314;2023-04-03T11:21:06;99357.63;;;14.73;nan
44138;BME280;29800;55.942;37.314;2023-04-03T11:23:36;99355.19;;;14.66;nan
44138;BME280;29800;55.942;37.314;2023-04-03T11:26:16;99355.06;;;14.82;nan
44138;BME280;29800;55.942;37.314;2023-04-03T11:28:43;99355.31;;;14.85;nan
44138;BME280;29800;55.942;37.314;2023-04-03T11:36:51;99350.13;;;14.84;nan
44138;BME280;29800;55.942;37.314;2023-04-03T11:39:31;99340.81;;;14.75;nan
44138;BME280;29800;55.942;37.314;2023-04-03T11:42:40;99341.94;;;14.68;nan
44138;BME280;29800;55.942;37.314;2023-04-03T12:21:23;99355.91;;;13.77;nan
44138;BME280;29800;55.942;37.314;2023-04-03T12:35:35;99353.19;;;13.62;nan
44138;BME280;29800;55.942;37.314;2023-04-03T12:43:53;99345.78;;;13.57;nan
44138;BME280;29800;55.942;37.314;2023-04-03T12:46:33;99351.31;;;13.52;nan
44138;BME280;29800;55.942;37.314;2023-04-03T12:49:01;99347.47;;;13.48;nan
44138;BME280;29800;55.942;37.314;2023-04-03T12:51:38;99353.25;;;13.52;nan
44138;BME280;29800;55.942;37.314;2023-04-03T12:54:22;99352.13;;;13.48;nan
44138;BME280;29800;55.942;37.314;2023-04-03T12:56:49;99351.63;;;13.35;nan
44138;BME280;29800;55.942;37.314;2023-04-03T12:59:24;99341.16;;;13.37;nan
44138;BME280;29800;55.942;37.314;2023-04-03T13:01:56;99345.59;;;13.33;nan
44138;BME280;29800;55.942;37.314;2023-04-03T13:04:24;99348.03;;;13.30;nan
44138;BME280;29800;55.942;37.314;2023-04-03T13:06:51;99352.16;;;13.27;nan
44138;BME280;29800;55.942;37.314;2023-04-03T13:09:24;99349.41;;;13.27;nan
44138;BME280;29800;55.942;37.314;2023-04-03T13:12:01;99347.22;;;13.24;nan
44138;BME280;29800;55.942;37.314;2023-04-03T13:14:29;99341.72;;;13.19;nan
44138;BME280;29800;55.942;37.314;2023-04-03T13:17:09;99350.50;;;13.21;nan
44138;BME280;29800;55.942;37.314;2023-04-03T13:19:36;99347.78;;;13.11;nan
44138;BME280;29800;55.942;37.314;2023-04-03T13:22:04;99349.44;;;13.06;nan
44138;BME280;29800;55.942;37.314;2023-04-03T13:24:34;99352.72;;;13.03;nan
44138;BME280;29800;55.942;37.314;2023-04-03T13:27:01;99352.19;;;12.96;nan
44138;BME280;29800;55.942;37.314;2023-04-03T13:29:32;99347.50;;;12.97;nan
44138;BME280;29800;55.942;37.314;2023-04-03T13:32:00;99351.66;;;12.94;nan
44138;BME280;29800;55.942;37.314;2023-04-03T13:34:32;99351.91;;;12.93;nan
44138;BME280;29800;55.942;37.314;2023-04-03T13:37:02;99357.16;;;12.89;nan
44138;BME280;29800;55.942;37.314;2023-04-03T13:39:33;99357.16;;;12.89;nan
44138;BME280;29800;55.942;37.314;2023-04-03T13:42:02;99354.41;;;12.84;nan
44138;BME280;29800;55.942;37.314;2023-04-03T13:44:40;99355.50;;;12.78;nan
44138;BME280;29800;55.942;37.314;2023-04-03T13:49:42;99362.91;;;12.93;nan
44138;BME280;29800;55.942;37.314;2023-04-03T13:52:28;99360.97;;;12.78;nan
44138;BME280;29800;55.942;37.314;2023-04-03T13:54:59;99349.97;;;12.62;nan
44138;BME280;29800;55.942;37.314;2023-04-03T13:57:27;99358.22;;;12.57;nan
44138;BME280;29800;55.942;37.314;2023-04-03T13:59:54;99354.09;;;12.55;nan
44138;BME280;29800;55.942;37.314;2023-04-03T14:02:32;99357.38;;;12.62;nan
44138;BME280;29800;55.942;37.314;2023-04-03T14:05:01;99355.47;;;12.57;nan
44138;BME280;29800;55.942;37.314;2023-04-03T14:07:30;99352.16;;;12.55;nan
44138;BME280;29800;55.942;37.314;2023-04-03T14:09:57;99365.88;;;12.50;nan
44138;BME280;29800;55.942;37.314;2023-04-03T14:15:05;99362.59;;;12.48;nan
44138;BME280;29800;55.942;37.314;2023-04-03T14:17:37;99370.81;;;12.43;nan
44138;BME280;29800;55.942;37.314;2023-04-03T14:20:04;99368.91;;;12.38;nan
44138;BME280;29800;55.942;37.314;2023-04-03T14:22:32;99368.59;;;12.35;nan
44138;BME280;29800;55.942;37.314;2023-04-03T14:25:00;99379.28;;;12.31;nan
44138;BME280;29800;55.942;37.314;2023-04-03T14:27:30;99378.47;;;12.25;nan
44138;BME280;29800;55.942;37.314;2023-04-03T14:29:59;99375.97;;;12.19;nan
44138;BME280;29800;55.942;37.314;2023-04-03T14:32:26;99373.50;;;12.12;nan
44138;BME280;29800;55.942;37.314;2023-04-03T14:34:53;99374.56;;;12.06;nan
44138;BME280;29800;55.942;37.314;2023-04-03T14:37:23;99370.69;;;12.02;nan
44138;BME280;29800;55.942;37.314;2023-04-03T14:39:51;99379.44;;;11.93;nan
44138;BME280;29800;55.942;37.314;2023-04-03T14:42:22;99378.28;;;11.89;nan
44138;BME280;29800;55.942;37.314;2023-04-03T14:44:48;99381.03;;;11.84;nan
44138;BME280;29800;55.942;37.314;2023-04-03T14:47:19;99373.88;;;11.83;nan
44138;BME280;29800;55.942;37.314;2023-04-03T14:49:47;99377.66;;;11.72;nan
44138;BME280;29800;55.942;37.314;2023-04-03T14:52:25;99382.31;;;11.71;nan
44138;BME280;29800;55.942;37.314;2023-04-03T14:54:54;99373.22;;;11.61;nan
44138;BME280;29800;55.942;37.314;2023-04-03T14:57:24;99379.81;;;11.59;nan
44138;BME280;29800;55.942;37.314;2023-04-03T14:59:51;99384.38;;;11.49;nan
44138;BME280;29800;55.942;37.314;2023-04-03T15:02:35;99381.63;;;11.49;nan
44138;BME280;29800;55.942;37.314;2023-04-03T15:05:05;99386.50;;;11.36;nan
44138;BME280;29800;55.942;37.314;2023-04-03T15:07:35;99381.25;;;11.30;nan
44138;BME280;29800;55.942;37.314;2023-04-03T15:10:16;99389.16;;;11.26;nan
44138;BME280;29800;55.942;37.314;2023-04-03T15:12:44;99394.84;;;11.14;nan
44138;BME280;29800;55.942;37.314;2023-04-03T15:15:11;99396.19;;;11.12;nan
44138;BME280;29800;55.942;37.314;2023-04-03T15:17:38;99396.09;;;11.01;nan
44138;BME280;29800;55.942;37.314;2023-04-03T15:20:15;99394.97;;;10.97;nan
44138;BME280;29800;55.942;37.314;2023-04-03T15:22:41;99392.97;;;10.88;nan
44138;BME280;29800;55.942;37.314;2023-04-03T15:25:09;99402.22;;;10.81;nan
44138;BME280;29800;55.942;37.314;2023-04-03T15:27:36;99399.72;;;10.75;nan
44138;BME280;29800;55.942;37.314;2023-04-03T15:30:04;99394.75;;;10.72;nan